Главная страница
METAR-TAF:

METAR-TAF

Аэропорты :

Фьюмичино

Рим-Фьюмичино, Италия

широта: 41-48N, долгота: 012-14E, высота над уровнем моря: 2 м

Текущие метеонаблюдения

Эта сводка был подготовлена 14 минут назад, в 11:50 UTC
Ветер 11 Узел от западный
Температура 27°C
Влажность 58%
Давление 1016 hPa
Видимость 10 км и более
Нет облачности ниже 1500 м, и нет кучево-дождевой облачности

METAR: LIRF 211150Z 26011KT CAVOK 27/18 Q1016 NOSIG

Время: 14:04 (12:04 UTC)

Прогноз

Эта сводка был подготовлена 1 час и 4 минут назад, в 11:00 UTC
Прогноз действительный с 21-го 12 UTC до 22-го 18 UTC
Ветер 12 Узел от западный
Видимость 10 км и более
Отдельные облака на высоте 3000 фута
изменения
С 21-го 18 UTC до 21-го 20 UTC
Ветер 4 Узел переменных направлений
изменения
С 22-го 08 UTC до 22-го 10 UTC
Ветер 12 Узел от юго-западный

TAF: LIRF 211100Z 2112/2218 26012KT 9999 SCT030 BECMG 2118/2120 VRB04KT BECMG 2208/2210 23012KT

Метеонаблюдения и прогнозы для более 4000 аэропортов (сводки METAR и TAF).

Имеющиеся станции представлены на карте желтыми и красными точками.

Чтобы увидеть название станции, наведите на нее мышь.

Затем щелкните, чтобы увидеть метеонаблюдения и метеопрогнозы.

Управление картой: чтобы увеличить масштаб, щелкните зеленые кнопки с черным крестиком; чтобы уменьшить масштаб, щелкните зеленую кнопку с тире; для просмотра соседних карт щелкайте зеленые стрелки.


METAR-TAF: